Time;durP1;ratioP1;P1;durP2;ratioP2;P2;SDS_P1;SDS_P2;PMS_P1;PMS_P2;Temp;Humidity;BMP_temperature;BMP_pressure;BME280_temperature;BME280_humidity;BME280_pressure;Samples;Min_cycle;Max_cycle;Signal;HPM_P1;HPM_P2
2023/12/28 00:00:14;;;;;;;10.18;2.75;;;;;;;-144.73;100.00;54699.16;5012248;28;20025;-77
2023/12/28 00:02:40;;;;;;;5.13;2.55;;;;;;;-144.73;100.00;54736.13;5011727;28;20045;-77
2023/12/28 00:05:06;;;;;;;5.30;2.70;;;;;;;-144.73;100.00;54703.28;5002346;28;20026;-77
2023/12/28 00:07:31;;;;;;;10.63;2.80;;;;;;;-144.73;100.00;54703.28;5013236;28;20038;-77
2023/12/28 00:09:57;;;;;;;7.40;2.70;;;;;;;-144.73;100.00;54699.16;5032132;28;20085;-76
2023/12/28 00:12:22;;;;;;;6.88;2.53;;;;;;;-144.73;100.00;54707.38;5033802;28;20034;-76
2023/12/28 00:14:48;;;;;;;8.40;2.40;;;;;;;-144.73;100.00;54699.16;5035481;28;20116;-75
2023/12/28 00:17:14;;;;;;;6.70;2.05;;;;;;;-144.73;100.00;54711.47;5030714;28;20025;-75
2023/12/28 00:19:39;;;;;;;7.30;2.58;;;;;;;-144.73;100.00;54750.50;5016622;28;20025;-75
2023/12/28 00:22:04;;;;;;;7.93;2.65;;;;;;;-144.73;100.00;54713.53;5032161;28;20029;-77
2023/12/28 00:24:30;;;;;;;5.10;2.22;;;;;;;-144.73;100.00;54703.28;5015992;28;20018;-76
2023/12/28 00:26:55;;;;;;;4.60;2.30;;;;;;;-144.73;100.00;54703.28;5016194;28;20063;-76
2023/12/28 00:29:20;;;;;;;9.80;2.60;;;;;;;-144.73;100.00;54736.13;5016742;28;20033;-75
2023/12/28 00:31:46;;;;;;;5.35;2.20;;;;;;;-144.73;100.00;54715.59;5015461;28;20029;-75
2023/12/28 00:34:11;;;;;;;9.60;3.47;;;;;;;-144.73;100.00;54707.38;5034056;28;20033;-76
2023/12/28 00:36:36;;;;;;;8.82;2.85;;;;;;;-144.73;100.00;54721.75;5033323;28;20095;-75
2023/12/28 00:39:03;;;;;;;4.57;2.22;;;;;;;-144.73;100.00;54719.69;5016258;28;20025;-76
2023/12/28 00:41:28;;;;;;;5.10;2.17;;;;;;;-144.73;100.00;54686.84;5005232;28;20049;-75
2023/12/28 00:43:53;;;;;;;6.07;2.60;;;;;;;-144.73;100.00;54688.91;5032670;28;20100;-75
2023/12/28 00:46:19;;;;;;;6.82;2.55;;;;;;;-144.73;100.00;54736.13;5013830;28;20040;-76
2023/12/28 00:48:44;;;;;;;8.98;2.78;;;;;;;-144.73;100.00;54732.00;5016275;28;20033;-76
2023/12/28 00:51:09;;;;;;;8.52;2.58;;;;;;;-144.73;100.00;54715.59;5032931;28;20017;-76
2023/12/28 00:53:35;;;;;;;13.98;3.05;;;;;;;-144.73;100.00;54740.22;5031702;28;20111;-75
2023/12/28 00:56:00;;;;;;;11.30;2.70;;;;;;;-144.73;100.00;54715.59;5033272;28;20025;-76
2023/12/28 00:58:25;;;;;;;12.20;3.08;;;;;;;-144.73;100.00;54740.22;5031875;28;20081;-76
2023/12/28 01:00:53;;;;;;;3.60;2.13;;;;;;;-144.73;100.00;54711.47;5033426;28;20037;-76
2023/12/28 01:03:19;;;;;;;10.88;2.80;;;;;;;-144.73;100.00;54717.66;5017614;28;20042;-76
2023/12/28 01:05:47;;;;;;;6.20;2.38;;;;;;;-144.73;100.00;54682.75;4996814;28;20030;-76
2023/12/28 01:08:13;;;;;;;5.40;2.67;;;;;;;-144.73;100.00;54682.75;4994125;28;20041;-75
2023/12/28 01:10:38;;;;;;;7.95;2.80;;;;;;;-144.73;100.00;54711.47;4996894;28;20025;-75
2023/12/28 01:13:03;;;;;;;7.75;2.58;;;;;;;-144.73;100.00;54703.28;5007949;28;20044;-75
2023/12/28 01:15:29;;;;;;;7.05;3.00;;;;;;;-144.73;100.00;54715.59;5012539;28;20030;-75
2023/12/28 01:17:54;;;;;;;4.38;2.58;;;;;;;-144.73;100.00;54693.00;5027849;28;20040;-75
2023/12/28 01:20:19;;;;;;;9.32;3.38;;;;;;;-144.73;100.00;54695.06;5031777;28;20037;-75
2023/12/28 01:22:45;;;;;;;6.43;3.17;;;;;;;-144.73;100.00;54723.81;5031071;28;20037;-76
2023/12/28 01:25:10;;;;;;;7.28;3.00;;;;;;;-144.73;100.00;54674.53;5007980;28;20025;-75
2023/12/28 01:27:35;;;;;;;9.43;3.08;;;;;;;-144.73;100.00;54711.47;5033145;28;20120;-75
2023/12/28 01:30:01;;;;;;;9.77;2.78;;;;;;;-144.73;100.00;54674.53;5028393;28;20036;-74
2023/12/28 01:32:26;;;;;;;6.05;3.03;;;;;;;-144.73;100.00;54754.59;5023644;28;20065;-75
2023/12/28 01:34:52;;;;;;;5.45;2.55;;;;;;;-144.73;100.00;54707.38;5031729;28;20037;-75
2023/12/28 01:37:17;;;;;;;6.97;2.80;;;;;;;-144.73;100.00;54707.38;5032873;28;20061;-75
2023/12/28 01:39:43;;;;;;;5.63;2.80;;;;;;;-144.73;100.00;54727.91;5031558;28;20031;-75
2023/12/28 01:42:09;;;;;;;8.52;3.47;;;;;;;-144.73;100.00;54695.06;5013007;28;20029;-76
2023/12/28 01:44:34;;;;;;;8.73;2.88;;;;;;;-144.73;100.00;54686.84;5014884;28;20052;-76
2023/12/28 01:47:00;;;;;;;17.55;4.97;;;;;;;-144.73;100.00;54723.81;5031333;28;20033;-76
2023/12/28 01:49:28;;;;;;;7.07;3.08;;;;;;;-144.73;100.00;54719.69;5014757;28;20033;-77
2023/12/28 01:51:54;;;;;;;8.07;3.25;;;;;;;-144.73;100.00;54715.59;5030488;28;20033;-76
2023/12/28 01:54:22;;;;;;;7.20;3.60;;;;;;;-144.73;100.00;54690.97;5030661;28;20037;-75
2023/12/28 01:56:50;;;;;;;9.10;2.92;;;;;;;-144.73;100.00;54715.59;5014041;28;20112;-75
2023/12/28 01:59:18;;;;;;;7.07;2.85;;;;;;;-144.73;100.00;54711.47;5032709;28;20033;-77
2023/12/28 02:01:44;;;;;;;9.90;3.08;;;;;;;-144.73;100.00;54682.75;5012202;28;20041;-78
2023/12/28 02:04:10;;;;;;;10.45;3.80;;;;;;;-144.73;100.00;54740.22;5008246;28;20025;-76
2023/12/28 02:06:36;;;;;;;7.68;3.08;;;;;;;-144.73;100.00;54727.91;5031787;28;20033;-77
2023/12/28 02:09:01;;;;;;;9.35;3.60;;;;;;;-144.73;100.00;54723.81;5029646;28;20045;-76
2023/12/28 02:11:27;;;;;;;5.57;3.15;;;;;;;-144.73;100.00;54736.13;5010730;28;20037;-76
2023/12/28 02:13:52;;;;;;;5.95;3.15;;;;;;;-144.73;100.00;54703.28;4999952;28;20022;-75
2023/12/28 02:16:33;;;;;;;7.70;3.38;;;;;;;-144.73;100.00;54715.59;4994942;28;20030;-75
2023/12/28 02:19:03;;;;;;;10.18;3.95;;;;;;;-144.73;100.00;54740.22;5005882;28;20477;-76
2023/12/28 02:21:31;;;;;;;12.38;3.17;;;;;;;-144.73;100.00;54732.00;4997647;28;20133;-76
2023/12/28 02:23:56;;;;;;;7.00;3.42;;;;;;;-144.73;100.00;54723.81;5014544;28;20075;-76
2023/12/28 02:26:24;;;;;;;8.73;3.83;;;;;;;-144.73;100.00;54727.91;5031440;28;20034;-75
2023/12/28 02:28:50;;;;;;;10.38;3.47;;;;;;;-144.73;100.00;54740.22;5014508;28;20057;-75
2023/12/28 02:31:28;;;;;;;6.57;3.50;;;;;;;-144.73;100.00;54760.75;5010424;28;20053;-76
2023/12/28 02:33:59;;;;;;;10.80;3.30;;;;;;;-144.73;100.00;54711.47;4991870;28;20329;-76
2023/12/28 02:36:27;;;;;;;10.43;3.35;;;;;;;-144.73;100.00;54732.00;4998738;28;20044;-76
2023/12/28 02:38:56;;;;;;;9.10;3.53;;;;;;;-144.73;100.00;54715.59;4996929;28;20464;-75
2023/12/28 02:41:22;;;;;;;9.88;4.03;;;;;;;-144.73;100.00;54703.28;5008451;28;20034;-75
2023/12/28 02:43:48;;;;;;;6.47;3.28;;;;;;;-144.73;100.00;54719.69;5011588;28;20385;-76
2023/12/28 02:46:13;;;;;;;9.80;3.88;;;;;;;-144.73;100.00;54699.16;4994403;28;20032;-76
2023/12/28 02:48:42;;;;;;;7.88;2.97;;;;;;;-144.73;100.00;54686.84;4995272;28;20097;-76
2023/12/28 02:51:07;;;;;;;14.25;3.85;;;;;;;-144.73;100.00;54723.81;5004112;28;20105;-76
2023/12/28 02:53:33;;;;;;;16.10;4.15;;;;;;;-144.73;100.00;54690.97;5011800;28;20026;-77
2023/12/28 02:55:58;;;;;;;8.63;3.30;;;;;;;-144.73;100.00;54715.59;4997051;28;20137;-77
2023/12/28 02:58:23;;;;;;;6.40;3.35;;;;;;;-144.73;100.00;54723.81;5010592;28;20121;-77
2023/12/28 03:00:49;;;;;;;9.98;3.70;;;;;;;-144.73;100.00;54699.16;5010897;28;20029;-77
2023/12/28 03:03:14;;;;;;;7.20;3.15;;;;;;;-144.73;100.00;54723.81;5025858;28;20062;-76
2023/12/28 03:05:41;;;;;;;8.68;3.72;;;;;;;-144.73;100.00;54740.22;5029985;28;20108;-75
2023/12/28 03:08:06;;;;;;;7.32;3.92;;;;;;;-144.73;100.00;54727.91;5011268;28;20189;-75
2023/12/28 03:10:31;;;;;;;10.63;4.00;;;;;;;-144.73;100.00;54674.53;5030072;28;20128;-76
2023/12/28 03:12:57;;;;;;;7.07;3.40;;;;;;;-144.73;100.00;54719.69;5012894;28;20094;-76
2023/12/28 03:15:23;;;;;;;11.40;4.10;;;;;;;-144.73;100.00;54736.13;5013074;28;20021;-75
2023/12/28 03:17:48;;;;;;;12.38;4.13;;;;;;;-144.73;100.00;54736.13;5012992;28;20044;-75
2023/12/28 03:20:15;;;;;;;7.78;3.65;;;;;;;-144.73;100.00;54723.81;5031251;28;20494;-75
2023/12/28 03:22:40;;;;;;;9.88;3.97;;;;;;;-144.73;100.00;54709.44;5012579;28;20025;-76
2023/12/28 03:25:06;;;;;;;8.32;4.00;;;;;;;-144.73;100.00;54715.59;5013521;28;20157;-76
2023/12/28 03:27:31;;;;;;;12.13;4.13;;;;;;;-144.73;100.00;54699.16;5012921;28;20030;-75
2023/12/28 03:29:57;;;;;;;10.77;4.25;;;;;;;-144.73;100.00;54715.59;5009287;28;20026;-76
2023/12/28 03:32:22;;;;;;;10.70;3.50;;;;;;;-144.73;100.00;54719.69;5030256;28;20083;-76
2023/12/28 03:34:47;;;;;;;6.75;3.70;;;;;;;-144.73;100.00;54740.22;5013210;28;20026;-75
2023/12/28 03:37:13;;;;;;;7.88;3.90;;;;;;;-144.73;100.00;54748.44;5013131;28;20029;-76
2023/12/28 03:39:40;;;;;;;6.35;3.13;;;;;;;-144.73;100.00;54711.47;5030719;28;20099;-77
2023/12/28 03:42:06;;;;;;;12.35;4.05;;;;;;;-144.73;100.00;54725.84;5012095;28;20029;-76
2023/12/28 03:44:31;;;;;;;9.68;4.10;;;;;;;-144.73;100.00;54686.84;5029610;28;20025;-76
2023/12/28 03:46:57;;;;;;;9.98;4.07;;;;;;;-144.73;100.00;54711.47;5012445;28;20095;-75
2023/12/28 03:49:22;;;;;;;10.43;4.00;;;;;;;-144.73;100.00;54707.38;5029244;28;20029;-76
2023/12/28 03:51:50;;;;;;;10.68;3.80;;;;;;;-144.73;100.00;54674.53;5012460;28;20403;-75
2023/12/28 03:54:17;;;;;;;11.23;3.88;;;;;;;-144.73;100.00;54703.28;5029972;28;20022;-75
2023/12/28 03:56:43;;;;;;;11.93;4.20;;;;;;;-144.73;100.00;54723.81;5029873;28;20112;-76
2023/12/28 03:59:09;;;;;;;12.43;4.38;;;;;;;-144.73;100.00;54695.06;5029435;28;20032;-75
2023/12/28 04:01:35;;;;;;;11.27;3.97;;;;;;;-144.73;100.00;54690.97;5026277;28;20030;-76
2023/12/28 04:04:01;;;;;;;8.02;3.78;;;;;;;-144.73;100.00;54662.22;4997396;28;20033;-76
2023/12/28 04:06:29;;;;;;;15.13;4.75;;;;;;;-144.73;100.00;54707.38;5002921;28;20017;-77
2023/12/28 04:08:54;;;;;;;10.57;4.05;;;;;;;-144.73;100.00;54707.38;4995317;28;20034;-76
2023/12/28 04:11:20;;;;;;;11.52;4.22;;;;;;;-144.73;100.00;54727.91;4994997;28;20095;-75
2023/12/28 04:13:45;;;;;;;12.23;4.53;;;;;;;-144.73;100.00;54707.38;5012665;28;20033;-76
2023/12/28 04:16:14;;;;;;;8.60;3.28;;;;;;;-144.73;100.00;54703.28;5028978;28;20029;-77
2023/12/28 04:18:41;;;;;;;9.75;3.70;;;;;;;-144.73;100.00;54721.75;5030630;28;20107;-76
2023/12/28 04:21:11;;;;;;;9.57;3.75;;;;;;;-144.73;100.00;54686.84;5030262;28;20087;-76
2023/12/28 04:23:37;;;;;;;12.65;4.00;;;;;;;-144.73;100.00;54711.47;5029105;28;20107;-76
2023/12/28 04:26:03;;;;;;;8.10;3.60;;;;;;;-144.73;100.00;54695.06;5029787;28;20037;-76
2023/12/28 04:28:28;;;;;;;8.15;3.70;;;;;;;-144.73;100.00;54695.06;5012021;28;20412;-76
2023/12/28 04:30:53;;;;;;;10.50;3.72;;;;;;;-144.73;100.00;54703.28;5012958;28;20084;-77
2023/12/28 04:33:19;;;;;;;11.82;4.55;;;;;;;-144.73;100.00;54736.13;5011933;28;20053;-76
2023/12/28 04:35:45;;;;;;;6.95;3.15;;;;;;;-144.73;100.00;54703.28;5006733;28;20108;-77
2023/12/28 04:38:10;;;;;;;6.05;3.65;;;;;;;-144.73;100.00;54695.06;5012012;28;20033;-75
2023/12/28 04:40:35;;;;;;;10.38;3.40;;;;;;;-144.73;100.00;54678.63;5012403;28;20044;-76
2023/12/28 04:43:01;;;;;;;9.88;4.10;;;;;;;-144.73;100.00;54742.28;5028152;28;20111;-76
2023/12/28 04:45:27;;;;;;;12.60;4.05;;;;;;;-144.73;100.00;54658.13;5012729;28;20030;-76
2023/12/28 04:47:52;;;;;;;7.80;3.65;;;;;;;-144.73;100.00;54756.66;5028566;28;20040;-76
2023/12/28 04:50:18;;;;;;;10.38;3.72;;;;;;;-144.73;100.00;54723.81;5012841;28;20029;-75
2023/12/28 04:52:43;;;;;;;15.35;3.67;;;;;;;-144.73;100.00;54690.97;5011319;28;20048;-77
2023/12/28 04:55:08;;;;;;;11.63;3.55;;;;;;;-144.73;100.00;54723.81;5010679;28;20044;-75
2023/12/28 04:57:34;;;;;;;12.95;4.07;;;;;;;-144.73;100.00;54703.28;5003580;28;20084;-75
2023/12/28 04:59:59;;;;;;;13.95;3.65;;;;;;;-144.73;100.00;54719.69;4996421;28;20021;-75
2023/12/28 05:02:25;;;;;;;7.45;3.78;;;;;;;-144.73;100.00;54738.16;5002636;28;20067;-76
2023/12/28 05:04:50;;;;;;;8.80;3.67;;;;;;;-144.73;100.00;54695.06;5011118;28;20389;-75
2023/12/28 05:07:15;;;;;;;11.43;4.07;;;;;;;-144.73;100.00;54703.28;5003932;28;20034;-76
2023/12/28 05:09:41;;;;;;;12.35;3.95;;;;;;;-144.73;100.00;54690.97;4981388;28;20080;-75
2023/12/28 05:12:06;;;;;;;15.00;4.25;;;;;;;-144.73;100.00;54746.38;4995422;28;20041;-75
2023/12/28 05:14:31;;;;;;;9.65;3.67;;;;;;;-144.73;100.00;54727.91;5022540;28;20018;-76
2023/12/28 05:16:57;;;;;;;16.40;4.60;;;;;;;-144.73;100.00;54693.00;5025927;28;20036;-75
2023/12/28 05:19:22;;;;;;;11.38;3.75;;;;;;;-144.73;100.00;54682.75;4993874;28;20041;-75
2023/12/28 05:21:48;;;;;;;11.77;4.40;;;;;;;-144.73;100.00;54693.00;5000884;28;20025;-76
2023/12/28 05:24:13;;;;;;;11.57;3.92;;;;;;;-144.73;100.00;54674.53;5015735;28;20025;-75
2023/12/28 05:26:38;;;;;;;10.63;3.78;;;;;;;-144.73;100.00;54715.59;5028465;28;20026;-76
2023/12/28 05:29:04;;;;;;;16.10;4.47;;;;;;;-144.73;100.00;54688.91;5012524;28;20050;-75
2023/12/28 05:31:29;;;;;;;10.65;3.83;;;;;;;-144.73;100.00;54732.00;5010258;28;20030;-75
2023/12/28 05:33:55;;;;;;;11.60;3.85;;;;;;;-144.73;100.00;54744.31;4985404;28;20077;-77
2023/12/28 05:36:20;;;;;;;13.13;3.78;;;;;;;-144.73;100.00;54686.84;4993027;28;20069;-76
2023/12/28 05:38:45;;;;;;;10.23;3.92;;;;;;;-144.73;100.00;54727.91;5017154;28;20022;-76
2023/12/28 05:41:14;;;;;;;17.80;4.32;;;;;;;-144.73;100.00;54729.97;5019831;28;20108;-76
2023/12/28 05:43:39;;;;;;;9.15;3.90;;;;;;;-144.73;100.00;54713.53;5001524;28;20605;-75
2023/12/28 05:46:05;;;;;;;16.38;4.18;;;;;;;-144.73;100.00;54703.28;4997781;28;20113;-76
2023/12/28 05:48:30;;;;;;;13.95;4.88;;;;;;;-144.73;100.00;54711.47;4987373;28;20038;-76
2023/12/28 05:51:00;;;;;;;19.58;4.78;;;;;;;-144.73;100.00;54717.66;4988297;28;20113;-76
2023/12/28 05:53:26;;;;;;;9.63;3.78;;;;;;;-144.73;100.00;54703.28;4999831;28;20034;-76
2023/12/28 05:55:52;;;;;;;8.73;3.80;;;;;;;-144.73;100.00;54686.84;4991377;28;20022;-77
2023/12/28 05:58:17;;;;;;;15.82;3.95;;;;;;;-144.73;100.00;54721.75;4985348;28;20045;-76
2023/12/28 06:00:42;;;;;;;11.18;3.92;;;;;;;-144.73;100.00;54723.81;5002872;28;20113;-75
2023/12/28 06:03:08;;;;;;;11.43;3.78;;;;;;;-144.73;100.00;54707.38;4984579;28;20117;-76
2023/12/28 06:05:34;;;;;;;12.90;4.00;;;;;;;-144.73;100.00;54715.59;5008861;28;20370;-76
2023/12/28 06:07:59;;;;;;;10.70;3.85;;;;;;;-144.73;100.00;54703.28;4986390;28;20034;-75
2023/12/28 06:10:24;;;;;;;18.70;4.22;;;;;;;-144.73;100.00;54715.59;4980252;28;20092;-78
2023/12/28 06:12:50;;;;;;;17.27;4.57;;;;;;;-144.73;100.00;54705.31;4985922;28;20045;-76
2023/12/28 06:15:16;;;;;;;14.25;4.13;;;;;;;-144.73;100.00;54707.38;4976327;28;20089;-76
2023/12/28 06:17:41;;;;;;;12.68;3.83;;;;;;;-144.73;100.00;54711.47;4975509;28;20041;-76
2023/12/28 06:20:08;;;;;;;16.52;4.15;;;;;;;-144.73;100.00;54732.00;4992656;28;20045;-76
2023/12/28 06:22:34;;;;;;;7.38;2.92;;;;;;;-144.73;100.00;54711.47;4995441;28;20069;-76
2023/12/28 06:24:59;;;;;;;10.00;3.15;;;;;;;-144.73;100.00;54695.06;4980186;28;20053;-77
2023/12/28 06:27:24;;;;;;;16.25;3.83;;;;;;;-144.73;100.00;54670.44;4998092;28;20038;-76
2023/12/28 06:29:50;;;;;;;14.55;3.55;;;;;;;-144.73;100.00;54707.38;4983768;28;20037;-76
2023/12/28 06:32:15;;;;;;;13.55;3.50;;;;;;;-144.73;100.00;54711.47;4999923;28;20030;-76
2023/12/28 06:34:40;;;;;;;12.40;3.47;;;;;;;-144.73;100.00;54707.38;4999468;28;20029;-76
2023/12/28 06:37:06;;;;;;;13.30;3.88;;;;;;;-144.73;100.00;54701.22;4995909;28;20030;-76
2023/12/28 06:39:31;;;;;;;13.82;3.85;;;;;;;-144.73;100.00;54727.91;4988305;28;20060;-76
2023/12/28 06:41:57;;;;;;;13.55;3.72;;;;;;;-144.73;100.00;54707.38;4986086;28;20037;-76
2023/12/28 06:44:22;;;;;;;13.65;3.30;;;;;;;-144.73;100.00;54719.69;4985431;28;20535;-75
2023/12/28 06:46:47;;;;;;;13.88;3.80;;;;;;;-144.73;100.00;54727.91;5001525;28;20041;-75
2023/12/28 06:49:13;;;;;;;15.15;4.50;;;;;;;-144.73;100.00;54756.66;4983187;28;20124;-76
2023/12/28 06:51:38;;;;;;;17.10;5.07;;;;;;;-144.73;100.00;54662.22;4999503;28;20506;-75
2023/12/28 06:54:03;;;;;;;13.20;3.67;;;;;;;-144.73;100.00;54703.28;4983629;28;20034;-76
2023/12/28 06:56:29;;;;;;;11.15;3.55;;;;;;;-144.73;100.00;54697.13;4990692;28;20033;-76
2023/12/28 06:58:54;;;;;;;19.20;4.05;;;;;;;-144.73;100.00;54773.06;4986541;28;20021;-75
2023/12/28 07:01:19;;;;;;;21.13;4.60;;;;;;;-144.73;100.00;54719.69;4994030;28;20029;-76
2023/12/28 07:03:45;;;;;;;20.52;3.95;;;;;;;-144.73;100.00;54742.28;4979150;28;20030;-75
2023/12/28 07:06:10;;;;;;;13.55;4.20;;;;;;;-144.73;100.00;54699.16;4981074;28;20117;-75
2023/12/28 07:08:36;;;;;;;12.73;3.65;;;;;;;-144.73;100.00;54686.84;4985396;28;20085;-76
2023/12/28 07:11:02;;;;;;;16.67;3.40;;;;;;;-144.73;100.00;54670.44;4986819;28;20036;-76
2023/12/28 07:13:27;;;;;;;12.80;3.55;;;;;;;-144.73;100.00;54686.84;4991120;28;20053;-75
2023/12/28 07:15:53;;;;;;;15.90;3.88;;;;;;;-144.73;100.00;54695.06;4974399;28;20030;-75
2023/12/28 07:18:18;;;;;;;10.57;3.50;;;;;;;-144.73;100.00;54678.63;4986796;28;20068;-76
2023/12/28 07:20:44;;;;;;;15.00;3.88;;;;;;;-144.73;100.00;54697.13;4986943;28;20026;-76
2023/12/28 07:23:09;;;;;;;12.48;3.30;;;;;;;-144.73;100.00;54715.59;4988916;28;20137;-75
2023/12/28 07:25:35;;;;;;;23.35;4.40;;;;;;;-144.73;100.00;54682.75;4975803;28;20101;-75
2023/12/28 07:28:00;;;;;;;14.15;3.45;;;;;;;-144.73;100.00;54717.66;4972342;28;20549;-75
2023/12/28 07:30:25;;;;;;;10.18;2.97;;;;;;;-144.73;100.00;54670.44;4973940;28;20125;-76
2023/12/28 07:32:51;;;;;;;15.38;4.07;;;;;;;-144.73;100.00;54715.59;4979973;28;20030;-75
2023/12/28 07:35:17;;;;;;;14.88;3.15;;;;;;;-144.73;100.00;54697.13;4983785;28;20050;-75
2023/12/28 07:37:44;;;;;;;17.33;3.63;;;;;;;-144.73;100.00;54717.66;4979916;28;20034;-75
2023/12/28 07:40:11;;;;;;;17.58;3.53;;;;;;;-144.73;100.00;54684.78;4979343;28;20038;-75
2023/12/28 07:42:37;;;;;;;16.08;3.65;;;;;;;-144.73;100.00;54719.69;4990862;28;20058;-75
2023/12/28 07:45:08;;;;;;;14.55;3.40;;;;;;;-144.73;100.00;54707.38;4987899;28;20065;-76
2023/12/28 07:47:36;;;;;;;10.93;3.33;;;;;;;-144.73;100.00;54695.06;4973214;28;20038;-76
2023/12/28 07:50:02;;;;;;;13.07;2.78;;;;;;;-144.73;100.00;54723.81;4985737;28;20030;-76
2023/12/28 07:52:33;;;;;;;;;;;;;;;-144.73;100.00;54740.22;4981035;28;20120;-74
2023/12/28 07:54:59;;;;;;;11.80;3.15;;;;;;;-144.73;100.00;54703.28;4980533;28;20020;-72
2023/12/28 07:57:25;;;;;;;22.08;3.97;;;;;;;-144.73;100.00;54723.81;4981489;28;20039;-71
2023/12/28 07:59:51;;;;;;;13.68;3.42;;;;;;;-144.73;100.00;54732.00;4994986;28;20034;-72
2023/12/28 08:02:17;;;;;;;13.18;3.97;;;;;;;-144.73;100.00;54690.97;4994181;28;20108;-71
2023/12/28 08:04:42;;;;;;;16.13;3.72;;;;;;;-144.73;100.00;54756.66;4988839;28;20034;-71
2023/12/28 08:07:08;;;;;;;10.93;3.38;;;;;;;-144.73;100.00;54703.28;5000196;28;20034;-71
2023/12/28 08:09:35;;;;;;;16.67;3.70;;;;;;;-144.73;100.00;54654.00;4976812;28;20045;-71
2023/12/28 08:12:01;;;;;;;19.90;4.10;;;;;;;-144.73;100.00;54727.91;4991539;28;20039;-70
2023/12/28 08:14:26;;;;;;;15.65;3.75;;;;;;;-144.73;100.00;54670.44;4986793;28;20038;-71
2023/12/28 08:16:52;;;;;;;17.88;3.67;;;;;;;-144.73;100.00;54719.69;5005181;28;20085;-71
2023/12/28 08:19:17;;;;;;;19.42;4.50;;;;;;;-144.73;100.00;54703.28;4997910;28;20042;-71
2023/12/28 08:21:43;;;;;;;20.27;3.83;;;;;;;-144.73;100.00;54688.91;4981863;28;20035;-71
2023/12/28 08:24:08;;;;;;;18.23;3.58;;;;;;;-144.73;100.00;54732.00;4988547;28;20465;-71
2023/12/28 08:26:34;;;;;;;13.27;3.08;;;;;;;-144.73;100.00;54715.59;4974894;28;20037;-72
2023/12/28 08:28:59;;;;;;;15.40;4.10;;;;;;;-144.73;100.00;54674.53;4992007;28;20070;-71
2023/12/28 08:31:24;;;;;;;19.40;3.53;;;;;;;-144.73;100.00;54674.53;4976343;28;20048;-72
2023/12/28 08:33:50;;;;;;;17.98;4.15;;;;;;;-144.73;100.00;54678.63;4976271;28;20037;-71
2023/12/28 08:36:17;;;;;;;20.83;3.50;;;;;;;-144.73;100.00;54699.16;4985333;28;20069;-72
2023/12/28 08:38:42;;;;;;;13.65;3.55;;;;;;;-144.73;100.00;54695.06;4984033;28;20025;-71
2023/12/28 08:41:29;;;;;;;16.20;3.72;;;;;;;-144.73;100.00;54678.63;5005679;28;20026;-71
2023/12/28 08:43:54;;;;;;;19.25;3.67;;;;;;;-144.73;100.00;54674.53;5005559;28;20038;-72
2023/12/28 08:46:21;;;;;;;14.90;3.95;;;;;;;-144.73;100.00;54686.84;4988602;28;20091;-71
2023/12/28 08:48:46;;;;;;;22.92;3.92;;;;;;;-144.73;100.00;54744.31;5011395;28;20029;-72
2023/12/28 08:51:14;;;;;;;18.92;3.40;;;;;;;-144.73;100.00;54670.44;5018986;28;20033;-72
2023/12/28 08:53:40;;;;;;;27.73;4.32;;;;;;;-144.73;100.00;54709.44;5020322;28;20572;-71
2023/12/28 08:56:25;;;;;;;16.88;3.67;;;;;;;-144.73;100.00;54711.47;5010969;28;20121;-72
2023/12/28 08:58:52;;;;;;;22.90;4.63;;;;;;;-144.73;100.00;54643.75;5001295;28;20056;-72
2023/12/28 09:01:22;;;;;;;16.20;3.20;;;;;;;-144.73;100.00;54699.16;5013251;28;20175;-72
2023/12/28 09:03:50;;;;;;;23.30;4.13;;;;;;;-144.73;100.00;54682.75;5017037;28;20040;-72
2023/12/28 09:06:16;;;;;;;15.93;3.40;;;;;;;-144.73;100.00;54682.75;5023451;28;20033;-71
2023/12/28 09:08:43;;;;;;;23.90;3.45;;;;;;;-144.73;100.00;54711.47;5022742;28;20388;-72
2023/12/28 09:11:11;;;;;;;17.13;3.50;;;;;;;-144.73;100.00;54699.16;5012649;28;20036;-72
2023/12/28 09:13:37;;;;;;;19.13;4.40;;;;;;;-144.73;100.00;54674.53;4999435;28;20026;-71
2023/12/28 09:16:03;;;;;;;16.98;3.78;;;;;;;-144.73;100.00;54695.06;4993645;28;20026;-71
2023/12/28 09:18:28;;;;;;;17.13;4.15;;;;;;;-144.73;100.00;54711.47;5013089;28;20033;-71
2023/12/28 09:20:55;;;;;;;14.88;3.65;;;;;;;-144.73;100.00;54670.44;5012562;28;20080;-71
2023/12/28 09:23:20;;;;;;;15.55;3.03;;;;;;;-144.73;100.00;54647.84;5010010;28;20064;-71
2023/12/28 09:25:45;;;;;;;15.80;3.63;;;;;;;-144.73;100.00;54703.28;5000200;28;20021;-71
2023/12/28 09:28:11;;;;;;;16.40;3.95;;;;;;;-144.73;100.00;54684.78;4993815;28;20033;-72
2023/12/28 09:30:56;;;;;;;17.10;3.90;;;;;;;-144.73;100.00;54711.47;4990072;28;20019;-71
2023/12/28 09:33:22;;;;;;;21.88;3.38;;;;;;;-144.73;100.00;54686.84;5022590;28;20032;-72
2023/12/28 09:35:47;;;;;;;20.67;3.20;;;;;;;-144.73;100.00;54715.59;5009483;28;20022;-72
2023/12/28 09:38:13;;;;;;;15.40;3.15;;;;;;;-144.73;100.00;54715.59;5008765;28;20034;-74
2023/12/28 09:40:42;;;;;;;21.98;3.67;;;;;;;-144.73;100.00;54639.63;5001959;28;20040;-71
2023/12/28 09:43:15;;;;;;;23.55;3.67;;;;;;;-144.73;100.00;54703.28;4986321;28;20044;-71
2023/12/28 09:45:40;;;;;;;27.73;4.32;;;;;;;-144.73;100.00;54680.69;4982054;28;20056;-71
2023/12/28 09:48:06;;;;;;;22.10;4.45;;;;;;;-144.73;100.00;54695.06;4994458;28;20065;-73
2023/12/28 09:50:32;;;;;;;21.92;5.28;;;;;;;-144.73;100.00;54674.53;4999143;28;20493;-73
2023/12/28 09:52:58;;;;;;;18.52;3.95;;;;;;;-144.73;100.00;54703.28;5005051;28;20062;-73
2023/12/28 09:55:25;;;;;;;22.27;4.15;;;;;;;-144.73;100.00;54672.47;4997457;28;20111;-72
2023/12/28 09:57:51;;;;;;;12.07;2.97;;;;;;;-144.73;100.00;54707.38;4997307;28;20037;-71
2023/12/28 10:00:16;;;;;;;25.65;4.00;;;;;;;-144.73;100.00;54727.91;4991104;28;20053;-73
2023/12/28 10:02:44;;;;;;;19.63;4.38;;;;;;;-144.73;100.00;54690.97;5003410;28;20100;-72
2023/12/28 10:05:14;;;;;;;19.92;4.60;;;;;;;-144.73;100.00;54695.06;5017338;28;20021;-73
2023/12/28 10:07:47;;;;;;;22.15;4.03;;;;;;;-144.73;100.00;54707.38;4998283;28;20046;-72
2023/12/28 10:10:13;;;;;;;16.60;3.95;;;;;;;-144.73;100.00;54695.06;5015613;28;20022;-72
2023/12/28 10:12:38;;;;;;;16.88;4.25;;;;;;;-144.73;100.00;54701.22;5000632;28;20041;-72
2023/12/28 10:15:05;;;;;;;22.27;3.80;;;;;;;-144.73;100.00;54674.53;5020873;28;20116;-72
2023/12/28 10:17:33;;;;;;;18.27;3.85;;;;;;;-144.73;100.00;54715.59;4992051;28;20194;-71
2023/12/28 10:20:04;;;;;;;22.05;4.68;;;;;;;-144.73;100.00;54701.22;5016684;28;20044;-72
2023/12/28 10:22:29;;;;;;;17.33;3.80;;;;;;;-144.73;100.00;54719.69;5006631;28;20045;-73
2023/12/28 10:24:55;;;;;;;13.00;3.38;;;;;;;-144.73;100.00;54705.31;4987747;28;20500;-72
2023/12/28 10:27:20;;;;;;;25.00;3.78;;;;;;;-144.73;100.00;54654.00;4989987;28;20121;-72
2023/12/28 10:29:46;;;;;;;23.52;4.30;;;;;;;-144.73;100.00;54670.44;4992282;28;20034;-72
2023/12/28 10:32:11;;;;;;;24.70;3.83;;;;;;;-144.73;100.00;54703.28;4992218;28;20030;-71
2023/12/28 10:34:36;;;;;;;21.38;4.18;;;;;;;-144.73;100.00;54690.97;4988395;28;20038;-71
2023/12/28 10:37:02;;;;;;;21.13;4.50;;;;;;;-144.73;100.00;54713.53;5003602;28;20101;-73
2023/12/28 10:39:32;;;;;;;22.15;4.50;;;;;;;-144.73;100.00;54711.47;4992654;28;20033;-72
2023/12/28 10:42:04;;;;;;;28.73;4.65;;;;;;;-144.73;100.00;54703.28;4986927;28;20120;-72
2023/12/28 10:44:35;;;;;;;24.08;4.38;;;;;;;-144.73;100.00;54703.28;4992730;28;20377;-73
2023/12/28 10:47:02;;;;;;;23.63;3.67;;;;;;;-144.73;100.00;54686.84;4990006;28;20038;-72
2023/12/28 10:49:30;;;;;;;31.70;6.30;;;;;;;-144.73;100.00;54662.22;4977743;28;20033;-73
2023/12/28 10:51:55;;;;;;;29.40;5.80;;;;;;;-144.73;100.00;54690.97;5003843;28;20038;-73
2023/12/28 10:54:24;;;;;;;18.75;3.47;;;;;;;-144.73;100.00;54651.97;4997896;28;20101;-71
2023/12/28 10:56:58;;;;;;;16.58;3.60;;;;;;;-144.73;100.00;54695.06;4985934;28;20461;-71
2023/12/28 10:59:39;;;;;;;26.65;4.65;;;;;;;-144.73;100.00;54682.75;5001780;28;20058;-71